Time;durP1;ratioP1;P1;durP2;ratioP2;P2;SDS_P1;SDS_P2;PMS_P1;PMS_P2;Temp;Humidity;BMP_temperature;BMP_pressure;BME280_temperature;BME280_humidity;BME280_pressure;Samples;Min_cycle;Max_cycle;Signal;HPM_P1;HPM_P2
2023/09/20 00:00:29;;;;;;;3.25;1.40;;;;;;;18.54;58.77;99150.69;5151160;27;20043;-74
2023/09/20 00:02:56;;;;;;;3.55;1.50;;;;;;;18.58;58.62;99162.84;5149678;27;20081;-74
2023/09/20 00:05:24;;;;;;;3.38;1.70;;;;;;;18.61;59.39;99159.03;5150945;27;20050;-73
2023/09/20 00:07:54;;;;;;;2.40;1.65;;;;;;;18.69;63.48;99159.19;5150649;27;20051;-73
2023/09/20 00:10:21;;;;;;;3.50;1.80;;;;;;;18.72;63.91;99158.06;5149572;27;20035;-74
2023/09/20 00:12:48;;;;;;;3.90;1.65;;;;;;;18.74;63.23;99166.81;5151023;27;20112;-75
2023/09/20 00:15:15;;;;;;;2.85;1.45;;;;;;;18.66;62.94;99162.16;5150317;27;20046;-74
2023/09/20 00:17:42;;;;;;;2.13;1.38;;;;;;;18.63;64.33;99161.56;5149445;27;20047;-75
2023/09/20 00:20:12;;;;;;;2.10;1.20;;;;;;;18.13;64.36;99091.88;5150977;27;20061;-74
2023/09/20 00:22:44;;;;;;;2.85;1.60;;;;;;;18.32;64.95;99133.97;5149792;27;20051;-74
2023/09/20 00:25:12;;;;;;;3.92;1.70;;;;;;;18.57;63.73;99163.84;5150221;27;20051;-75
2023/09/20 00:27:40;;;;;;;3.10;1.60;;;;;;;18.30;62.82;99118.00;5150038;27;20352;-74
2023/09/20 00:30:10;;;;;;;2.40;1.40;;;;;;;18.45;61.67;99161.38;5149008;27;20039;-75
2023/09/20 00:32:39;;;;;;;2.45;1.60;;;;;;;18.44;62.13;99163.22;5150459;27;20122;-75
2023/09/20 00:35:09;;;;;;;2.53;1.52;;;;;;;18.44;64.05;99163.22;5149802;27;20050;-75
2023/09/20 00:37:35;;;;;;;2.22;1.30;;;;;;;18.49;63.93;99162.81;5149040;27;20241;-74
2023/09/20 00:40:06;;;;;;;6.45;2.13;;;;;;;18.47;63.43;99162.94;5150010;27;20051;-74
2023/09/20 00:42:33;;;;;;;3.22;1.80;;;;;;;18.44;62.72;99167.75;5150059;27;20102;-74
2023/09/20 00:45:01;;;;;;;3.67;1.58;;;;;;;18.34;64.36;99165.03;5149854;27;20052;-74
2023/09/20 00:47:29;;;;;;;2.25;1.50;;;;;;;17.67;65.80;99057.63;5149078;27;20043;-75
2023/09/20 00:49:56;;;;;;;3.05;1.85;;;;;;;18.28;66.72;99169.13;5150229;27;20243;-74
2023/09/20 00:52:24;;;;;;;2.33;1.77;;;;;;;18.27;66.36;99172.78;5150208;27;20053;-75
2023/09/20 00:54:51;;;;;;;3.15;1.70;;;;;;;18.34;65.18;99166.88;5149093;27;20303;-74
2023/09/20 00:57:20;;;;;;;2.58;1.42;;;;;;;18.33;67.22;99171.38;5149116;27;20055;-75
2023/09/20 00:59:46;;;;;;;2.47;1.58;;;;;;;18.27;65.77;99159.38;5150210;27;20046;-74
2023/09/20 01:02:14;;;;;;;3.05;1.60;;;;;;;18.40;65.25;99172.53;5150217;27;20050;-75
2023/09/20 01:04:42;;;;;;;3.50;1.70;;;;;;;18.20;65.94;99152.88;5148706;27;20035;-75
2023/09/20 01:07:09;;;;;;;2.60;1.80;;;;;;;18.16;65.76;99148.75;5148974;27;20047;-74
2023/09/20 01:09:37;;;;;;;3.35;2.00;;;;;;;18.20;64.91;99176.16;5149771;27;20057;-74
2023/09/20 01:12:06;;;;;;;3.50;1.80;;;;;;;18.06;66.42;99142.53;5148860;27;20039;-75
2023/09/20 01:14:35;;;;;;;2.95;1.60;;;;;;;17.55;65.83;99071.09;5149350;27;20350;-74
2023/09/20 01:17:07;;;;;;;2.92;1.85;;;;;;;18.08;65.11;99170.06;5149216;27;20047;-75
2023/09/20 01:19:35;;;;;;;3.75;1.70;;;;;;;17.93;65.42;99168.75;5149883;27;20047;-75
2023/09/20 01:22:03;;;;;;;5.60;1.60;;;;;;;18.00;66.27;99172.56;5150013;27;20042;-75
2023/09/20 01:24:32;;;;;;;3.53;1.60;;;;;;;18.03;66.42;99172.31;5150186;27;20031;-75
2023/09/20 01:27:03;;;;;;;2.70;1.50;;;;;;;17.90;65.66;99169.00;5149519;27;20051;-75
2023/09/20 01:29:30;;;;;;;2.38;1.40;;;;;;;17.78;65.89;99136.09;5150318;27;20066;-75
2023/09/20 01:32:02;;;;;;;2.35;1.40;;;;;;;17.46;66.69;99101.38;5149494;27;20319;-75
2023/09/20 01:34:31;;;;;;;3.45;1.42;;;;;;;17.84;66.42;99164.19;5149019;27;20063;-75
2023/09/20 01:36:59;;;;;;;2.50;1.45;;;;;;;17.53;66.76;99115.09;5148671;27;20119;-75
2023/09/20 01:39:28;;;;;;;3.00;1.60;;;;;;;17.75;66.20;99157.81;5149491;27;20047;-75
2023/09/20 01:41:56;;;;;;;3.90;2.10;;;;;;;17.76;66.55;99155.97;5148376;27;20054;-74
2023/09/20 01:44:23;;;;;;;2.50;1.52;;;;;;;17.78;66.74;99162.91;5149849;27;20107;-75
2023/09/20 01:46:50;;;;;;;3.95;1.85;;;;;;;17.74;67.32;99158.78;5149501;27;20096;-75
2023/09/20 01:49:18;;;;;;;3.45;1.80;;;;;;;17.45;67.29;99129.16;5148430;27;20043;-74
2023/09/20 01:51:45;;;;;;;3.17;1.77;;;;;;;17.60;67.67;99159.13;5149240;27;20039;-74
2023/09/20 01:54:12;;;;;;;3.67;2.00;;;;;;;17.59;67.42;99165.47;5148962;27;20035;-74
2023/09/20 01:56:41;;;;;;;3.63;1.70;;;;;;;17.57;67.25;99162.06;5148810;27;20050;-74
2023/09/20 01:59:09;;;;;;;3.22;1.50;;;;;;;17.52;67.58;99165.13;5147702;27;20080;-75
2023/09/20 02:01:37;;;;;;;3.90;1.50;;;;;;;17.56;67.76;99163.03;5148769;27;20035;-75
2023/09/20 02:04:05;;;;;;;5.60;1.70;;;;;;;17.51;67.09;99159.91;5148975;27;20039;-74
2023/09/20 02:06:32;;;;;;;2.42;1.55;;;;;;;17.16;66.83;99101.31;5148379;27;20039;-75
2023/09/20 02:08:59;;;;;;;3.17;1.50;;;;;;;17.30;66.34;99125.13;5147160;27;20356;-75
2023/09/20 02:11:26;;;;;;;2.40;1.67;;;;;;;17.48;67.29;99155.66;5147223;27;20092;-75
2023/09/20 02:13:54;;;;;;;2.97;1.98;;;;;;;17.47;66.12;99162.00;5147281;27;20042;-74
2023/09/20 02:16:21;;;;;;;3.10;1.67;;;;;;;17.46;65.90;99159.47;5148332;27;20097;-75
2023/09/20 02:18:48;;;;;;;3.00;1.50;;;;;;;17.41;65.64;99159.88;5147152;27;20083;-75
2023/09/20 02:21:15;;;;;;;2.83;1.40;;;;;;;17.39;65.75;99164.50;5148016;27;20043;-75
2023/09/20 02:23:44;;;;;;;2.53;1.40;;;;;;;13.61;65.26;98793.81;5148019;27;20046;-75
2023/09/20 02:26:12;;;;;;;2.90;1.50;;;;;;;17.34;65.60;99155.16;5148010;27;20042;-74
2023/09/20 02:28:39;;;;;;;3.00;1.60;;;;;;;17.27;65.34;99153.00;5146616;27;20039;-75
2023/09/20 02:31:09;;;;;;;4.53;1.88;;;;;;;17.28;65.51;99153.88;5147729;27;20051;-75
2023/09/20 02:33:36;;;;;;;3.55;1.80;;;;;;;17.29;66.75;99152.88;5147788;27;20050;-75
2023/09/20 02:36:04;;;;;;;7.10;1.75;;;;;;;17.25;67.56;99160.34;5147999;27;20092;-75
2023/09/20 02:38:31;;;;;;;2.45;1.48;;;;;;;17.08;68.73;99123.41;5146579;27;20081;-75
2023/09/20 02:40:58;;;;;;;2.72;1.50;;;;;;;17.24;67.90;99155.97;5147806;27;20047;-74
2023/09/20 02:43:26;;;;;;;2.55;1.63;;;;;;;17.27;67.76;99157.53;5146619;27;20387;-74
2023/09/20 02:45:54;;;;;;;3.17;1.40;;;;;;;17.25;68.59;99157.66;5147338;27;20200;-75
2023/09/20 02:48:22;;;;;;;3.10;1.75;;;;;;;17.22;68.32;99157.91;5146363;27;20337;-74
2023/09/20 02:50:50;;;;;;;3.08;1.92;;;;;;;17.18;68.83;99152.91;5146350;27;20084;-75
2023/09/20 02:53:18;;;;;;;3.13;1.60;;;;;;;17.25;68.29;99162.16;5147734;27;20043;-75
2023/09/20 02:55:46;;;;;;;2.72;1.60;;;;;;;17.27;69.14;99157.53;5147905;27;20070;-75
2023/09/20 02:58:13;;;;;;;3.05;1.85;;;;;;;16.98;68.71;99119.81;5146618;27;20045;-75
2023/09/20 03:00:46;;;;;;;3.60;2.33;;;;;;;17.22;67.29;99159.75;5147709;27;20039;-75
2023/09/20 03:03:15;;;;;;;3.20;2.08;;;;;;;17.17;68.22;99165.47;5146608;27;20043;-75
2023/09/20 03:05:43;;;;;;;3.55;2.38;;;;;;;17.13;69.01;99152.47;5146659;27;20053;-74
2023/09/20 03:08:13;;;;;;;3.60;1.73;;;;;;;17.16;68.95;99162.91;5146452;27;20054;-74
2023/09/20 03:10:41;;;;;;;4.63;2.47;;;;;;;17.14;69.13;99157.69;5146948;28;20329;-75
2023/09/20 03:13:10;;;;;;;2.70;1.70;;;;;;;16.94;68.71;99134.44;5146851;28;20066;-75
2023/09/20 03:15:43;;;;;;;2.22;1.63;;;;;;;17.07;68.71;99167.22;5147156;28;20078;-75
2023/09/20 03:18:13;;;;;;;3.47;1.67;;;;;;;16.79;68.80;99125.88;5146778;28;20069;-75
2023/09/20 03:20:43;;;;;;;3.95;1.73;;;;;;;16.99;69.22;99170.56;5146149;28;20242;-75
2023/09/20 03:23:13;;;;;;;2.83;1.70;;;;;;;16.98;69.01;99168.00;5146429;28;20047;-75
2023/09/20 03:25:40;;;;;;;3.85;2.15;;;;;;;16.99;68.96;99167.88;5147024;28;20049;-74
2023/09/20 03:28:09;;;;;;;4.97;2.05;;;;;;;16.97;69.09;99169.84;5128754;28;20039;-75
2023/09/20 03:30:38;;;;;;;2.60;1.73;;;;;;;16.88;69.39;99165.25;5146315;28;20073;-75
2023/09/20 03:33:06;;;;;;;2.90;1.80;;;;;;;16.20;69.32;99088.88;5146930;28;20043;-75
2023/09/20 03:35:34;;;;;;;3.92;1.83;;;;;;;16.81;69.32;99187.31;5145740;28;20035;-75
2023/09/20 03:38:01;;;;;;;4.63;1.90;;;;;;;16.74;69.03;99172.75;5147039;28;20047;-75
2023/09/20 03:40:30;;;;;;;4.03;1.80;;;;;;;16.70;69.76;99172.16;5146807;27;20054;-75
2023/09/20 03:42:57;;;;;;;2.65;1.70;;;;;;;16.74;70.16;99170.91;5146586;28;20043;-75
2023/09/20 03:45:28;;;;;;;3.25;2.03;;;;;;;16.70;70.57;99169.47;5147166;28;20043;-74
2023/09/20 03:47:57;;;;;;;4.38;1.95;;;;;;;16.64;69.85;99170.78;5147182;28;20035;-75
2023/09/20 03:50:24;;;;;;;2.65;1.80;;;;;;;16.46;70.70;99150.91;5146776;28;20073;-75
2023/09/20 03:52:52;;;;;;;2.90;1.90;;;;;;;16.72;69.47;99172.03;5146486;28;20062;-75
2023/09/20 03:55:19;;;;;;;4.78;2.33;;;;;;;16.68;69.60;99182.97;5147157;28;20031;-74
2023/09/20 03:57:48;;;;;;;2.95;1.90;;;;;;;16.65;70.51;99167.16;5147034;27;20035;-75
2023/09/20 04:00:18;;;;;;;4.63;1.90;;;;;;;16.64;69.85;99175.28;5150701;27;20114;-75
2023/09/20 04:02:48;;;;;;;3.50;2.10;;;;;;;16.67;70.15;99177.75;5150655;27;20043;-75
2023/09/20 04:05:16;;;;;;;3.28;2.17;;;;;;;16.66;69.79;99174.22;5150667;27;20057;-75
2023/09/20 04:07:44;;;;;;;3.78;1.95;;;;;;;16.36;70.20;99124.09;5151045;27;20173;-75
2023/09/20 04:10:13;;;;;;;3.90;2.25;;;;;;;16.65;69.89;99174.31;5150234;27;20043;-75
2023/09/20 04:12:40;;;;;;;3.92;2.50;;;;;;;16.26;69.97;99123.13;5150239;27;20318;-75
2023/09/20 04:15:09;;;;;;;4.50;2.35;;;;;;;16.60;71.15;99179.19;5150531;27;20168;-75
2023/09/20 04:17:36;;;;;;;3.45;1.98;;;;;;;16.59;70.24;99175.69;5150727;27;20315;-75
2023/09/20 04:20:06;;;;;;;3.33;1.90;;;;;;;16.60;70.84;99179.19;5151284;27;20043;-75
2023/09/20 04:22:33;;;;;;;5.93;2.70;;;;;;;16.59;70.53;99175.69;5151103;27;20051;-75
2023/09/20 04:25:00;;;;;;;5.32;2.22;;;;;;;16.60;70.39;99184.56;5149430;27;20311;-75
2023/09/20 04:27:27;;;;;;;3.15;2.10;;;;;;;16.58;70.28;99195.38;5150626;27;20060;-75
2023/09/20 04:29:54;;;;;;;3.80;2.42;;;;;;;16.55;70.27;99189.44;5150668;27;20078;-75
2023/09/20 04:32:23;;;;;;;3.55;2.25;;;;;;;16.48;70.82;99186.41;5150447;27;20099;-75
2023/09/20 04:34:52;;;;;;;4.05;2.78;;;;;;;16.30;71.08;99154.00;5149952;27;20039;-75
2023/09/20 04:37:19;;;;;;;4.22;2.58;;;;;;;16.47;71.21;99186.53;5149551;27;20334;-75
2023/09/20 04:39:47;;;;;;;4.20;1.98;;;;;;;16.49;70.91;99189.94;5149351;27;20043;-75
2023/09/20 04:42:14;;;;;;;4.90;2.35;;;;;;;16.48;71.21;99189.09;5150522;27;20053;-75
2023/09/20 04:44:41;;;;;;;2.40;1.60;;;;;;;16.19;71.05;99138.00;5150366;27;20051;-73
2023/09/20 04:47:09;;;;;;;3.10;1.92;;;;;;;16.47;71.12;99191.88;5150823;27;20043;-74
2023/09/20 04:49:38;;;;;;;2.88;1.80;;;;;;;16.47;70.74;99199.91;5150389;27;20107;-75
2023/09/20 04:52:08;;;;;;;5.20;2.40;;;;;;;16.28;70.56;99163.13;5150360;27;20114;-75
2023/09/20 04:54:35;;;;;;;5.40;2.67;;;;;;;16.45;70.89;99196.50;5148935;27;20084;-74
2023/09/20 04:57:04;;;;;;;5.90;2.00;;;;;;;16.24;70.86;99161.69;5149673;27;20054;-75
2023/09/20 04:59:31;;;;;;;3.55;2.17;;;;;;;16.25;70.89;99171.41;5149901;27;20067;-75
2023/09/20 05:01:59;;;;;;;3.97;2.00;;;;;;;16.42;70.83;99192.25;5148859;27;20035;-74
2023/09/20 05:04:26;;;;;;;5.88;2.15;;;;;;;16.42;71.10;99194.09;5150172;27;20042;-75
2023/09/20 05:06:54;;;;;;;3.33;2.13;;;;;;;16.46;70.82;99196.38;5149785;27;20055;-75
2023/09/20 05:09:21;;;;;;;4.53;2.28;;;;;;;16.00;71.26;99127.94;5149217;27;20043;-75
2023/09/20 05:11:49;;;;;;;3.90;2.50;;;;;;;16.12;70.76;99139.47;5149872;27;20043;-75
2023/09/20 05:14:17;;;;;;;5.05;3.28;;;;;;;16.42;70.93;99200.28;5149793;27;20039;-75
2023/09/20 05:16:44;;;;;;;11.13;4.88;;;;;;;16.35;71.14;99199.09;5149648;27;20089;-75
2023/09/20 05:19:11;;;;;;;7.40;3.47;;;;;;;16.38;71.31;99190.81;5149768;27;20069;-75
2023/09/20 05:21:37;;;;;;;5.45;2.72;;;;;;;16.40;70.90;99196.88;5149983;27;20111;-75
2023/09/20 05:24:06;;;;;;;6.30;2.72;;;;;;;16.34;71.29;99203.59;5149648;27;20039;-75
2023/09/20 05:26:33;;;;;;;11.02;2.83;;;;;;;16.31;71.21;99198.50;5149644;27;20066;-75
2023/09/20 05:29:00;;;;;;;4.43;2.60;;;;;;;16.34;71.29;99200.06;5149052;27;20074;-75
2023/09/20 05:31:29;;;;;;;4.45;2.40;;;;;;;16.11;71.46;99159.16;5148667;27;20035;-75
2023/09/20 05:33:56;;;;;;;6.63;2.80;;;;;;;16.32;71.63;99197.50;5149638;27;20106;-75
2023/09/20 05:36:27;;;;;;;7.00;3.30;;;;;;;16.33;71.26;99188.53;5149080;27;20066;-75
2023/09/20 05:38:54;;;;;;;5.88;2.88;;;;;;;16.25;71.24;99196.31;5148905;27;20080;-75
2023/09/20 05:41:23;;;;;;;6.70;2.67;;;;;;;16.35;71.75;99207.97;5131291;27;20035;-75
2023/09/20 05:43:51;;;;;;;10.70;3.60;;;;;;;16.35;71.89;99213.31;5149508;27;20081;-75
2023/09/20 05:46:18;;;;;;;5.28;2.70;;;;;;;16.22;71.83;99177.00;5148131;27;20035;-75
2023/09/20 05:48:46;;;;;;;4.75;2.55;;;;;;;16.42;71.81;99208.31;5149593;27;20043;-75
2023/09/20 05:51:14;;;;;;;6.88;3.00;;;;;;;16.45;71.41;99210.75;5147710;27;20043;-75
2023/09/20 05:53:42;;;;;;;5.20;3.20;;;;;;;16.47;70.68;99207.94;5148921;27;20326;-75
2023/09/20 05:56:11;;;;;;;5.45;3.10;;;;;;;16.52;70.76;99216.44;5148944;27;20043;-75
2023/09/20 05:58:40;;;;;;;5.65;2.95;;;;;;;16.55;71.17;99219.72;5148786;27;20051;-75
2023/09/20 06:01:09;;;;;;;7.38;2.95;;;;;;;16.59;71.24;99217.63;5147899;27;20039;-75
2023/09/20 06:03:36;;;;;;;6.45;3.85;;;;;;;16.61;71.30;99213.84;5147864;27;20055;-75
2023/09/20 06:06:04;;;;;;;9.68;3.78;;;;;;;16.65;71.00;99209.94;5148486;27;20043;-75
2023/09/20 06:08:31;;;;;;;4.50;3.35;;;;;;;16.71;70.63;99205.09;5147990;27;20083;-75
2023/09/20 06:10:58;;;;;;;6.57;3.38;;;;;;;16.75;70.69;99206.56;5149062;27;20088;-75
2023/09/20 06:13:25;;;;;;;7.47;3.08;;;;;;;16.78;70.42;99199.13;5148863;27;20054;-75
2023/09/20 06:15:53;;;;;;;4.95;3.20;;;;;;;16.80;70.78;99207.88;5148012;27;20042;-74
2023/09/20 06:18:20;;;;;;;5.55;3.00;;;;;;;16.84;70.50;99200.44;5148265;27;20059;-75
2023/09/20 06:20:50;;;;;;;8.23;3.03;;;;;;;16.92;71.36;99201.50;5147655;27;20244;-75
2023/09/20 06:23:18;;;;;;;5.00;2.67;;;;;;;17.05;71.97;99205.81;5148699;27;20068;-74
2023/09/20 06:25:47;;;;;;;3.90;2.30;;;;;;;17.13;69.54;99209.53;5147361;27;20362;-75
2023/09/20 06:28:13;;;;;;;4.40;2.55;;;;;;;17.23;69.55;99206.97;5148220;27;20035;-75
2023/09/20 06:30:41;;;;;;;5.25;2.38;;;;;;;17.20;69.34;99212.56;5148266;27;20049;-75
2023/09/20 06:33:10;;;;;;;5.45;2.38;;;;;;;17.26;68.98;99212.06;5147328;27;20138;-75
2023/09/20 06:35:40;;;;;;;4.80;2.65;;;;;;;17.36;67.97;99209.47;5147894;27;20114;-75
2023/09/20 06:38:07;;;;;;;4.70;2.28;;;;;;;17.49;68.11;99213.63;5148337;27;20295;-75
2023/09/20 06:40:38;;;;;;;5.22;3.13;;;;;;;17.57;67.05;99211.16;5148320;27;20046;-75
2023/09/20 06:43:07;;;;;;;11.43;3.47;;;;;;;17.34;66.62;99157.84;5148307;27;20046;-75
2023/09/20 06:45:34;;;;;;;5.35;3.45;;;;;;;17.86;66.71;99207.78;5147848;27;20085;-75
2023/09/20 06:48:02;;;;;;;3.67;2.47;;;;;;;17.90;65.94;99207.38;5147410;27;20043;-75
2023/09/20 06:50:30;;;;;;;7.72;2.88;;;;;;;17.94;66.23;99202.59;5147970;27;20049;-75
2023/09/20 06:52:57;;;;;;;4.05;2.60;;;;;;;17.82;65.70;99168.84;5146913;27;20042;-75
2023/09/20 06:55:25;;;;;;;4.95;2.72;;;;;;;18.10;66.19;99200.28;5147669;27;20043;-75
2023/09/20 06:57:53;;;;;;;4.68;2.30;;;;;;;18.23;65.89;99206.25;5147929;27;20054;-75
2023/09/20 07:00:25;;;;;;;3.65;2.45;;;;;;;18.27;64.27;99202.31;5147611;27;20313;-75
2023/09/20 07:02:52;;;;;;;4.68;2.40;;;;;;;18.40;64.92;99191.31;5147673;27;20057;-75
2023/09/20 07:05:21;;;;;;;4.28;2.60;;;;;;;18.43;63.52;99192.88;5146525;27;20042;-74
2023/09/20 07:07:49;;;;;;;4.30;2.63;;;;;;;18.00;64.33;99132.34;5147964;27;20051;-75
2023/09/20 07:10:16;;;;;;;6.40;2.38;;;;;;;18.42;63.19;99188.50;5147301;27;20051;-75
2023/09/20 07:12:44;;;;;;;6.65;4.50;;;;;;;18.62;62.22;99197.47;5129695;28;20083;-75
2023/09/20 07:15:14;;;;;;;3.55;2.42;;;;;;;18.26;63.04;99138.91;5146458;28;20062;-75
2023/09/20 07:17:42;;;;;;;4.25;2.67;;;;;;;18.74;62.10;99190.97;5147167;27;20051;-75
2023/09/20 07:20:14;;;;;;;5.28;2.70;;;;;;;18.10;61.89;99065.34;5147204;28;20211;-75
2023/09/20 07:22:43;;;;;;;4.07;2.50;;;;;;;18.94;61.57;99183.78;5147460;27;20039;-75
2023/09/20 07:25:19;;;;;;;3.75;2.72;;;;;;;18.92;63.07;99198.19;5147295;28;20047;-75
2023/09/20 07:27:46;;;;;;;6.05;2.50;;;;;;;18.95;62.60;99190.84;5147643;28;20292;-75
2023/09/20 07:30:17;;;;;;;7.55;3.15;;;;;;;18.99;62.01;99193.09;5146891;28;20199;-75
2023/09/20 07:32:45;;;;;;;7.95;2.45;;;;;;;19.20;60.52;99192.94;5147788;27;20058;-75
2023/09/20 07:35:26;;;;;;;4.35;3.03;;;;;;;19.38;59.87;99191.22;5150846;27;20084;-75
2023/09/20 07:37:58;;;;;;;6.65;3.10;;;;;;;19.41;60.02;99188.28;5152323;27;20039;-75
2023/09/20 07:40:30;;;;;;;5.65;3.33;;;;;;;19.58;59.19;99192.06;5152584;27;20062;-75
2023/09/20 07:43:03;;;;;;;5.00;3.22;;;;;;;19.60;59.24;99192.75;5151815;27;20088;-75
2023/09/20 07:45:37;;;;;;;5.77;3.10;;;;;;;19.09;58.89;99096.41;5152264;27;20084;-75
2023/09/20 07:48:11;;;;;;;6.53;2.80;;;;;;;19.71;59.54;99179.13;5149812;27;20137;-76
2023/09/20 07:50:40;;;;;;;7.25;4.15;;;;;;;19.91;57.87;99179.09;5150650;27;20054;-75
2023/09/20 07:53:10;;;;;;;8.82;3.33;;;;;;;19.99;57.40;99177.34;5151283;27;20054;-75
2023/09/20 07:55:45;;;;;;;5.35;3.03;;;;;;;20.14;57.29;99178.56;5151003;27;20041;-75
2023/09/20 07:58:13;;;;;;;5.75;2.50;;;;;;;20.21;56.42;99175.25;5151655;27;20074;-75
2023/09/20 08:00:45;;;;;;;5.68;3.28;;;;;;;20.16;56.45;99181.94;5152311;27;20043;-75
2023/09/20 08:03:12;;;;;;;4.97;2.67;;;;;;;20.22;57.77;99182.34;5151545;27;20057;-75
2023/09/20 08:05:39;;;;;;;5.78;2.45;;;;;;;20.35;55.83;99172.09;5151090;27;20302;-75
2023/09/20 08:08:07;;;;;;;4.68;2.10;;;;;;;20.37;55.50;99176.34;5150242;27;20068;-75
2023/09/20 08:10:34;;;;;;;3.22;2.03;;;;;;;19.99;54.00;99123.56;5151041;27;20054;-75
2023/09/20 08:13:05;;;;;;;3.35;1.88;;;;;;;20.50;53.14;99179.50;5151234;27;20031;-75
2023/09/20 08:15:32;;;;;;;3.38;1.77;;;;;;;20.21;53.64;99124.16;5150415;27;20062;-75
2023/09/20 08:20:43;;;;;;;3.80;2.15;;;;;;;20.41;54.18;99144.59;5150873;27;20047;-76
2023/09/20 09:01:47;;;;;;;3.40;1.88;;;;;;;21.97;48.43;99151.88;5149181;27;20050;-74
2023/09/20 09:04:18;;;;;;;5.53;2.50;;;;;;;22.17;47.67;99151.63;5149006;27;20074;-72
2023/09/20 09:06:45;;;;;;;3.90;2.33;;;;;;;22.15;48.51;99142.84;5149660;27;20035;-80
2023/09/20 09:09:12;;;;;;;5.85;3.03;;;;;;;22.31;48.53;99151.84;5149105;27;20050;-74
2023/09/20 09:11:40;;;;;;;4.05;2.55;;;;;;;22.33;48.37;99139.00;5149752;27;20043;-73
2023/09/20 09:14:07;;;;;;;3.67;2.10;;;;;;;22.36;47.02;99100.03;5149601;27;20054;-72
2023/09/20 09:20:20;;;;;;;3.83;2.05;;;;;;;22.67;47.73;99127.34;5068755;28;20089;-71
2023/09/20 09:22:47;;;;;;;4.88;2.30;;;;;;;22.72;46.37;99124.97;5047899;28;20041;-73
2023/09/20 09:25:16;;;;;;;3.95;2.47;;;;;;;22.78;46.12;99124.31;5046996;28;20042;-71
2023/09/20 09:27:43;;;;;;;3.75;2.30;;;;;;;22.95;44.63;99117.03;5047535;28;20276;-73
2023/09/20 09:30:12;;;;;;;3.38;1.98;;;;;;;22.95;45.63;99117.88;5046792;28;20107;-74
2023/09/20 09:32:41;;;;;;;3.20;2.38;;;;;;;22.85;46.21;99113.66;5045830;28;20041;-73
2023/09/20 09:35:09;;;;;;;4.28;1.92;;;;;;;22.80;46.49;99106.06;5046975;28;20095;-74
2023/09/20 09:37:39;;;;;;;3.30;2.17;;;;;;;22.31;45.44;99002.50;5063095;28;20053;-77
2023/09/20 09:40:08;;;;;;;4.40;2.20;;;;;;;22.96;46.00;99094.41;5045907;28;20316;-73
2023/09/20 09:42:36;;;;;;;3.72;2.35;;;;;;;23.00;46.63;99099.31;5046690;28;20292;-74
2023/09/20 09:45:03;;;;;;;3.83;2.35;;;;;;;23.10;46.04;99093.72;5046916;28;20076;-76
2023/09/20 09:47:33;;;;;;;3.90;2.35;;;;;;;23.13;46.48;99095.25;5046573;28;20041;-76
2023/09/20 09:50:02;;;;;;;3.55;2.40;;;;;;;23.32;45.45;99093.03;5046919;28;20041;-76
2023/09/20 09:52:30;;;;;;;4.25;2.47;;;;;;;23.35;45.92;99083.75;5045769;28;20056;-76
2023/09/20 09:54:58;;;;;;;3.42;2.42;;;;;;;23.42;46.50;99079.34;5046854;28;20046;-76
2023/09/20 09:57:25;;;;;;;3.38;2.50;;;;;;;23.34;47.34;99073.94;5061612;28;20060;-76
2023/09/20 09:59:53;;;;;;;4.35;2.50;;;;;;;23.23;47.45;99048.09;5045480;28;20120;-76
2023/09/20 10:02:21;;;;;;;5.40;2.28;;;;;;;23.50;46.53;99076.59;5046201;28;20120;-76
2023/09/20 10:04:53;;;;;;;3.88;2.20;;;;;;;23.51;46.46;99067.47;5062152;28;20041;-75
2023/09/20 10:07:24;;;;;;;3.25;2.10;;;;;;;23.35;47.52;99019.69;5045587;28;20100;-76
2023/09/20 10:09:52;;;;;;;3.78;2.30;;;;;;;23.91;44.48;99065.63;5045732;28;20099;-76
2023/09/20 10:12:23;;;;;;;2.95;2.03;;;;;;;23.45;46.03;99013.22;5046074;28;20192;-76
2023/09/20 10:14:50;;;;;;;3.35;2.35;;;;;;;23.77;45.01;99053.66;5045666;28;20224;-75
2023/09/20 10:17:20;;;;;;;4.03;2.15;;;;;;;23.85;45.50;99050.09;5045158;28;20037;-76
2023/09/20 10:19:50;;;;;;;5.75;2.78;;;;;;;22.91;44.58;98854.44;5061004;28;20327;-76
2023/09/20 10:22:21;;;;;;;3.35;2.20;;;;;;;23.66;44.42;98972.91;5069075;28;20072;-76
2023/09/20 10:24:53;;;;;;;4.00;2.03;;;;;;;23.63;44.83;98978.66;5086055;28;20036;-76
2023/09/20 10:27:23;;;;;;;4.22;2.42;;;;;;;24.10;44.93;99030.00;5086219;28;20040;-75
2023/09/20 10:30:01;;;;;;;3.22;1.92;;;;;;;24.22;44.39;99033.16;5068321;28;20048;-75
2023/09/20 10:32:53;;;;;;;3.67;2.20;;;;;;;24.26;45.31;99032.63;5068743;28;20047;-75
2023/09/20 10:35:22;;;;;;;3.55;2.13;;;;;;;24.26;44.88;99029.91;5068375;28;20051;-75
2023/09/20 10:38:20;;;;;;;3.55;2.20;;;;;;;24.37;44.36;99025.09;5068187;28;20127;-75
2023/09/20 10:41:00;;;;;;;5.85;2.90;;;;;;;24.38;45.02;99019.50;5084528;28;20057;-75
2023/09/20 10:43:48;;;;;;;4.53;2.33;;;;;;;24.48;44.75;99024.66;5068010;28;20044;-75
2023/09/20 10:46:18;;;;;;;7.00;2.75;;;;;;;24.48;44.48;99020.09;5085793;28;20041;-75
2023/09/20 10:48:49;;;;;;;6.07;2.63;;;;;;;24.27;44.76;98973.88;5085433;28;20044;-75
2023/09/20 10:51:43;;;;;;;5.82;2.50;;;;;;;24.57;44.99;99010.88;5085667;28;20040;-75
2023/09/20 10:54:24;;;;;;;3.45;2.22;;;;;;;24.56;44.66;99003.78;5084701;28;20070;-75
2023/09/20 10:57:05;;;;;;;4.65;2.10;;;;;;;24.14;43.80;98897.84;5085389;28;20060;-75
2023/09/20 10:59:34;;;;;;;4.65;2.40;;;;;;;24.45;43.92;98946.47;5084570;28;20048;-75
2023/09/20 11:02:05;;;;;;;3.97;2.42;;;;;;;24.67;44.81;98988.97;5084945;28;20044;-75
2023/09/20 11:04:34;;;;;;;4.32;2.40;;;;;;;24.69;44.28;98983.38;5085324;28;20048;-75
2023/09/20 11:07:02;;;;;;;5.45;2.70;;;;;;;24.83;43.99;98983.41;5085265;28;20343;-75
2023/09/20 11:09:31;;;;;;;2.95;2.10;;;;;;;24.85;43.95;98981.34;5085148;28;20047;-76
2023/09/20 11:12:04;;;;;;;4.15;2.20;;;;;;;24.89;43.63;98979.94;5085291;28;20249;-75
2023/09/20 11:14:34;;;;;;;2.97;1.63;;;;;;;24.80;44.90;98969.38;5067903;28;20040;-75
2023/09/20 11:17:01;;;;;;;5.18;2.00;;;;;;;24.86;44.72;98969.47;5085727;28;20055;-75
2023/09/20 11:19:29;;;;;;;4.43;2.00;;;;;;;25.02;44.46;98959.53;5067518;28;20086;-76
2023/09/20 11:21:57;;;;;;;8.70;2.58;;;;;;;25.19;43.82;98958.31;5085193;28;20349;-75
2023/09/20 11:24:25;;;;;;;3.55;2.10;;;;;;;24.98;43.84;98912.94;5084939;28;20098;-76
2023/09/20 11:26:54;;;;;;;3.90;2.20;;;;;;;25.11;44.85;98956.53;5085271;28;20037;-76
2023/09/20 11:29:21;;;;;;;4.03;2.20;;;;;;;24.86;44.87;98928.00;5084450;28;20044;-76
2023/09/20 11:31:50;;;;;;;3.08;2.10;;;;;;;24.98;45.20;98952.75;5084878;28;20040;-76
2023/09/20 11:34:19;;;;;;;4.55;2.20;;;;;;;24.77;46.01;98910.13;5085283;28;20101;-76
2023/09/20 11:36:47;;;;;;;3.35;2.20;;;;;;;25.05;45.99;98951.03;5085341;28;20041;-76
2023/09/20 11:39:17;;;;;;;5.85;2.20;;;;;;;24.56;46.31;98879.16;5067803;28;20063;-75
2023/09/20 11:41:45;;;;;;;7.53;2.85;;;;;;;25.05;46.28;98937.47;5085105;28;20096;-76
2023/09/20 11:44:12;;;;;;;4.07;2.10;;;;;;;25.14;46.01;98933.63;5085267;28;20086;-76
2023/09/20 11:46:39;;;;;;;3.70;2.70;;;;;;;24.70;46.78;98873.97;5085011;28;20044;-75
2023/09/20 11:49:10;;;;;;;3.22;2.22;;;;;;;25.10;46.98;98938.59;5068300;28;20135;-76
2023/09/20 11:51:40;;;;;;;4.20;2.20;;;;;;;25.16;47.23;98920.72;5068260;28;20175;-75
2023/09/20 11:54:10;;;;;;;3.33;2.10;;;;;;;25.16;47.58;98929.69;5085230;28;20044;-76
2023/09/20 11:56:37;;;;;;;5.15;2.40;;;;;;;25.02;47.03;98880.91;5084872;28;20045;-76
2023/09/20 11:59:10;;;;;;;3.53;2.42;;;;;;;24.94;47.00;98860.13;5085201;28;20185;-75
2023/09/20 12:01:41;;;;;;;3.17;2.25;;;;;;;24.81;47.34;98855.38;5084942;28;20113;-75
2023/09/20 12:04:10;;;;;;;4.15;2.10;;;;;;;25.13;47.98;98911.09;5083644;28;20082;-76
2023/09/20 12:06:40;;;;;;;3.08;2.03;;;;;;;24.70;47.69;98831.47;5085150;28;20123;-76
2023/09/20 12:09:07;;;;;;;5.65;2.83;;;;;;;25.14;47.80;98901.09;5084994;28;20040;-75
2023/09/20 12:11:35;;;;;;;5.25;2.40;;;;;;;24.94;48.46;98876.41;5084929;28;20040;-75
2023/09/20 12:14:03;;;;;;;6.88;2.50;;;;;;;25.18;47.19;98903.22;5084964;28;20108;-76
2023/09/20 12:16:30;;;;;;;3.47;2.22;;;;;;;24.82;48.34;98845.38;5084536;28;20296;-75
2023/09/20 12:18:58;;;;;;;5.93;2.60;;;;;;;25.10;48.52;98886.22;5084982;28;20086;-75
2023/09/20 12:21:27;;;;;;;3.55;2.53;;;;;;;25.23;47.55;98886.41;5088008;28;20062;-75
2023/09/20 12:23:53;;;;;;;6.03;2.40;;;;;;;25.12;47.51;98887.72;5088136;28;20047;-75
2023/09/20 12:26:21;;;;;;;3.80;2.30;;;;;;;25.04;49.05;98884.28;5053863;28;20040;-76